Time;durP1;ratioP1;P1;durP2;ratioP2;P2;SDS_P1;SDS_P2;PMS_P1;PMS_P2;Temp;Humidity;BMP_temperature;BMP_pressure;BME280_temperature;BME280_humidity;BME280_pressure;Samples;Min_cycle;Max_cycle;Signal;HPM_P1;HPM_P2
2022/10/08 00:01:27;;;;;;;13.43;4.82;;;;;;;;;;5061118;28;20463;-79
2022/10/08 00:03:55;;;;;;;12.25;4.60;;;;;;;;;;5061977;28;21150;-79
2022/10/08 00:06:22;;;;;;;13.20;4.90;;;;;;;;;;5060727;28;20426;-78
2022/10/08 00:08:49;;;;;;;14.55;4.30;;;;;;;;;;5065356;28;20997;-78
2022/10/08 00:11:18;;;;;;;18.17;4.30;;;;;;;;;;5061606;28;20788;-78
2022/10/08 00:13:46;;;;;;;13.20;4.38;;;;;;;;;;5064854;28;20423;-78
2022/10/08 00:16:14;;;;;;;15.30;4.43;;;;;;;;;;5064745;28;20425;-79
2022/10/08 00:18:41;;;;;;;14.00;4.07;;;;;;;;;;5062445;28;20436;-79
2022/10/08 00:21:13;;;;;;;14.55;4.78;;;;;;;;;;5062638;28;20423;-78
2022/10/08 00:23:39;;;;;;;8.38;3.85;;;;;;;;;;5061389;28;20434;-79
2022/10/08 00:26:06;;;;;;;14.30;4.47;;;;;;;;;;5063453;28;20430;-79
2022/10/08 00:28:32;;;;;;;11.10;4.40;;;;;;;;;;5061656;28;20515;-79
2022/10/08 00:31:05;;;;;;;15.30;5.38;;;;;;;;;;5065512;28;20582;-78
2022/10/08 00:33:31;;;;;;;16.98;4.55;;;;;;;;;;5062602;28;20802;-79
2022/10/08 00:36:00;;;;;;;10.10;3.95;;;;;;;;;;5062117;28;20513;-78
2022/10/08 00:38:28;;;;;;;16.93;4.43;;;;;;;;;;5062859;28;20431;-78
2022/10/08 00:40:54;;;;;;;11.30;4.22;;;;;;;;;;5059971;28;20433;-77
2022/10/08 00:43:36;;;;;;;14.43;4.68;;;;;;;;;;5063801;28;20437;-78
2022/10/08 00:46:03;;;;;;;12.45;4.38;;;;;;;;;;5063604;28;20416;-77
2022/10/08 00:48:29;;;;;;;16.60;4.50;;;;;;;;;;5062513;28;20415;-78
2022/10/08 00:50:55;;;;;;;15.13;4.30;;;;;;;;;;5061937;28;20428;-80
2022/10/08 00:53:22;;;;;;;15.20;5.00;;;;;;;;;;5060888;28;20417;-79
2022/10/08 00:55:49;;;;;;;12.68;4.32;;;;;;;;;;5062448;28;20431;-77
2022/10/08 00:58:18;;;;;;;11.73;4.38;;;;;;;;;;5059749;28;20414;-77
2022/10/08 01:00:44;;;;;;;12.45;4.55;;;;;;;;;;5063002;28;20439;-77
2022/10/08 01:03:10;;;;;;;18.08;4.88;;;;;;;;;;5062508;28;20455;-77
2022/10/08 01:05:42;;;;;;;16.40;4.60;;;;;;;;;;5062265;28;20414;-78
2022/10/08 01:08:13;;;;;;;14.93;4.47;;;;;;;;;;5059521;28;20429;-77
2022/10/08 01:10:45;;;;;;;11.32;4.40;;;;;;;;;;5059344;28;20498;-79
2022/10/08 01:13:17;;;;;;;15.47;4.70;;;;;;;;;;5062489;28;20416;-78
2022/10/08 01:15:48;;;;;;;11.35;4.65;;;;;;;;;;5060863;28;20433;-79
2022/10/08 01:18:19;;;;;;;12.80;5.03;;;;;;;;;;5062198;28;20937;-78
2022/10/08 01:20:49;;;;;;;12.50;5.00;;;;;;;;;;5059610;28;20420;-78
2022/10/08 01:23:26;;;;;;;16.05;4.50;;;;;;;;;;5061557;28;20424;-78
2022/10/08 01:25:56;;;;;;;18.23;5.10;;;;;;;;;;5058915;28;20428;-78
2022/10/08 01:28:27;;;;;;;13.13;4.28;;;;;;;;;;5060867;28;20498;-79
2022/10/08 01:30:56;;;;;;;12.10;4.18;;;;;;;;;;5061603;28;20960;-78
2022/10/08 01:33:24;;;;;;;12.40;4.33;;;;;;;;;;5058929;28;20436;-78
2022/10/08 01:35:56;;;;;;;12.40;4.70;;;;;;;;;;5060549;28;20420;-78
2022/10/08 01:38:23;;;;;;;9.45;4.10;;;;;;;;;;5058950;28;20437;-78
2022/10/08 01:40:51;;;;;;;12.30;4.40;;;;;;;;;;5057317;28;21008;-79
2022/10/08 01:43:19;;;;;;;10.90;4.10;;;;;;;;;;5061133;28;20435;-78
2022/10/08 01:45:49;;;;;;;10.55;4.15;;;;;;;;;;5058166;28;20811;-78
2022/10/08 01:48:18;;;;;;;12.82;4.00;;;;;;;;;;5061187;28;20967;-79
2022/10/08 01:50:48;;;;;;;13.77;4.60;;;;;;;;;;5058836;28;20427;-78
2022/10/08 01:53:15;;;;;;;14.35;4.93;;;;;;;;;;5059187;28;20432;-78
2022/10/08 01:55:43;;;;;;;15.27;4.40;;;;;;;;;;5058312;28;20432;-79
2022/10/08 01:58:13;;;;;;;12.77;4.30;;;;;;;;;;5061356;28;20932;-79
2022/10/08 02:00:41;;;;;;;12.85;4.35;;;;;;;;;;5061073;28;20430;-79
2022/10/08 02:03:10;;;;;;;9.77;3.80;;;;;;;;;;5059642;28;20871;-79
2022/10/08 02:05:37;;;;;;;16.00;4.80;;;;;;;;;;5058863;28;20427;-79
2022/10/08 02:08:04;;;;;;;12.23;4.78;;;;;;;;;;5061837;28;20408;-79
2022/10/08 02:10:31;;;;;;;15.02;5.00;;;;;;;;;;5058569;28;20416;-79
2022/10/08 02:12:57;;;;;;;11.10;4.45;;;;;;;;;;5061624;28;20417;-79
2022/10/08 02:15:32;;;;;;;10.47;3.70;;;;;;;;;;5059136;28;20425;-79
2022/10/08 02:18:05;;;;;;;14.43;4.23;;;;;;;;;;5058914;28;20803;-77
2022/10/08 02:20:35;;;;;;;14.35;4.13;;;;;;;;;;5059255;28;20533;-80
2022/10/08 02:23:03;;;;;;;11.32;4.20;;;;;;;;;;5059019;28;20440;-79
2022/10/08 02:25:33;;;;;;;14.70;4.70;;;;;;;;;;5057479;28;20427;-79
2022/10/08 02:28:04;;;;;;;12.00;4.30;;;;;;;;;;5058137;28;20443;-79
2022/10/08 02:30:35;;;;;;;14.07;4.20;;;;;;;;;;5059794;28;20795;-79
2022/10/08 02:33:04;;;;;;;12.90;4.83;;;;;;;;;;5060060;28;21862;-79
2022/10/08 02:35:34;;;;;;;12.07;4.47;;;;;;;;;;5057019;28;20429;-79
2022/10/08 02:38:05;;;;;;;10.20;4.75;;;;;;;;;;5059739;28;20425;-78
2022/10/08 02:40:33;;;;;;;12.45;4.30;;;;;;;;;;5056370;28;20432;-78
2022/10/08 02:43:01;;;;;;;17.25;5.43;;;;;;;;;;5056678;28;20446;-78
2022/10/08 02:45:32;;;;;;;14.23;5.00;;;;;;;;;;5058038;28;20418;-79
2022/10/08 02:48:00;;;;;;;10.23;4.55;;;;;;;;;;5059949;28;20427;-78
2022/10/08 02:50:28;;;;;;;11.98;4.65;;;;;;;;;;5055856;28;20436;-79
2022/10/08 02:52:56;;;;;;;14.68;4.25;;;;;;;;;;5057813;28;20432;-79
2022/10/08 02:55:29;;;;;;;16.05;4.30;;;;;;;;;;5058228;28;20423;-79
2022/10/08 02:57:58;;;;;;;15.48;4.93;;;;;;;;;;5060765;28;20429;-79
2022/10/08 03:00:25;;;;;;;15.55;5.20;;;;;;;;;;5058212;28;20417;-77
2022/10/08 03:02:54;;;;;;;13.52;4.97;;;;;;;;;;5058959;28;20429;-78
2022/10/08 03:05:21;;;;;;;11.33;4.53;;;;;;;;;;5060318;28;20435;-79
2022/10/08 03:07:49;;;;;;;16.20;4.50;;;;;;;;;;5063870;28;20423;-78
2022/10/08 03:10:16;;;;;;;10.63;4.78;;;;;;;;;;5062542;28;20484;-79
2022/10/08 03:12:44;;;;;;;21.80;5.65;;;;;;;;;;5059651;28;20440;-79
2022/10/08 03:15:11;;;;;;;13.25;4.82;;;;;;;;;;5059442;28;20431;-79
2022/10/08 03:17:38;;;;;;;18.10;5.30;;;;;;;;;;5058779;28;20421;-79
2022/10/08 03:20:06;;;;;;;10.32;4.57;;;;;;;;;;5059710;28;20426;-79
2022/10/08 03:22:33;;;;;;;11.07;4.47;;;;;;;;;;5057477;28;20431;-79
2022/10/08 03:25:01;;;;;;;12.98;5.90;;;;;;;;;;5055586;28;20427;-79
2022/10/08 03:27:27;;;;;;;10.63;4.90;;;;;;;;;;5059315;28;20434;-77
2022/10/08 03:29:56;;;;;;;13.33;5.17;;;;;;;;;;5056785;28;20416;-78
2022/10/08 03:32:23;;;;;;;11.43;5.33;;;;;;;;;;5058087;28;20431;-78
2022/10/08 03:34:49;;;;;;;13.23;5.22;;;;;;;;;;5067957;28;20428;-78
2022/10/08 03:37:15;;;;;;;13.30;4.80;;;;;;;;;;5059488;28;20437;-79
2022/10/08 03:39:43;;;;;;;12.95;4.80;;;;;;;;;;5060667;28;20427;-78
2022/10/08 03:42:10;;;;;;;13.75;5.15;;;;;;;;;;5061623;28;20428;-79
2022/10/08 03:44:36;;;;;;;11.85;5.80;;;;;;;;;;5063567;28;20433;-79
2022/10/08 03:47:04;;;;;;;8.48;4.82;;;;;;;;;;5058206;28;20425;-78
2022/10/08 03:49:30;;;;;;;15.32;5.90;;;;;;;;;;5062152;28;20919;-79
2022/10/08 03:51:56;;;;;;;16.80;5.30;;;;;;;;;;5062470;28;20429;-78
2022/10/08 03:54:23;;;;;;;13.60;4.87;;;;;;;;;;5059910;28;20529;-78
2022/10/08 03:56:49;;;;;;;13.70;5.00;;;;;;;;;;5061502;28;20432;-78
2022/10/08 03:59:15;;;;;;;15.25;4.78;;;;;;;;;;5058069;28;20431;-78
2022/10/08 04:01:42;;;;;;;12.05;4.70;;;;;;;;;;5064705;28;20438;-80
2022/10/08 04:04:10;;;;;;;14.63;4.90;;;;;;;;;;5061657;28;20427;-78
2022/10/08 04:06:36;;;;;;;13.57;4.93;;;;;;;;;;5062704;28;21023;-79
2022/10/08 04:09:02;;;;;;;11.55;4.43;;;;;;;;;;5062079;28;20415;-79
2022/10/08 04:11:29;;;;;;;10.80;4.80;;;;;;;;;;5077473;28;20420;-78
2022/10/08 04:13:55;;;;;;;10.23;4.45;;;;;;;;;;5082595;28;20418;-79
2022/10/08 04:16:23;;;;;;;12.35;4.50;;;;;;;;;;5096817;28;20410;-79
2022/10/08 04:18:50;;;;;;;9.48;4.13;;;;;;;;;;5084028;28;20412;-79
2022/10/08 04:21:18;;;;;;;10.82;4.45;;;;;;;;;;5080459;28;20455;-79
2022/10/08 04:23:45;;;;;;;12.00;4.07;;;;;;;;;;5081047;28;20429;-79
2022/10/08 04:26:12;;;;;;;9.30;3.90;;;;;;;;;;5080694;28;20433;-79
2022/10/08 04:28:39;;;;;;;10.07;3.90;;;;;;;;;;5064372;28;21048;-78
2022/10/08 04:31:07;;;;;;;13.82;3.95;;;;;;;;;;5064129;28;20420;-79
2022/10/08 04:33:36;;;;;;;8.45;3.70;;;;;;;;;;5079571;28;20434;-78
2022/10/08 04:36:06;;;;;;;15.25;4.60;;;;;;;;;;5080542;28;20430;-79
2022/10/08 04:38:34;;;;;;;8.82;3.75;;;;;;;;;;5079032;28;20430;-78
2022/10/08 04:41:03;;;;;;;7.50;3.40;;;;;;;;;;5079670;28;20745;-78
2022/10/08 04:43:31;;;;;;;8.60;3.67;;;;;;;;;;5082464;28;20423;-79
2022/10/08 04:45:57;;;;;;;9.23;3.65;;;;;;;;;;5082839;28;20914;-78
2022/10/08 04:48:24;;;;;;;8.07;3.25;;;;;;;;;;5082228;28;20443;-79
2022/10/08 04:50:53;;;;;;;7.40;3.40;;;;;;;;;;5081642;28;20420;-79
2022/10/08 04:53:20;;;;;;;7.78;3.30;;;;;;;;;;5062449;28;20506;-79
2022/10/08 04:55:48;;;;;;;14.10;3.75;;;;;;;;;;5078840;28;20450;-79
2022/10/08 04:58:14;;;;;;;8.50;3.80;;;;;;;;;;5081197;28;20436;-79
2022/10/08 05:00:41;;;;;;;9.90;3.78;;;;;;;;;;5080519;28;20420;-78
2022/10/08 05:03:07;;;;;;;8.50;3.92;;;;;;;;;;5082832;28;20922;-78
2022/10/08 05:05:34;;;;;;;7.90;3.92;;;;;;;;;;5078558;28;20418;-78
2022/10/08 05:08:00;;;;;;;12.18;4.07;;;;;;;;;;5082658;28;20430;-78
2022/10/08 05:10:26;;;;;;;9.98;3.60;;;;;;;;;;5058711;28;20424;-78
2022/10/08 05:12:54;;;;;;;9.90;4.10;;;;;;;;;;5080538;28;20433;-79
2022/10/08 05:15:20;;;;;;;5.87;3.40;;;;;;;;;;5077951;28;20419;-78
2022/10/08 05:17:47;;;;;;;8.85;3.80;;;;;;;;;;5081944;28;20426;-78
2022/10/08 05:20:13;;;;;;;9.18;4.20;;;;;;;;;;5083378;28;20504;-77
2022/10/08 05:22:39;;;;;;;7.72;3.97;;;;;;;;;;5080300;28;20431;-78
2022/10/08 05:25:06;;;;;;;7.75;4.25;;;;;;;;;;5079283;28;20419;-78
2022/10/08 05:27:33;;;;;;;13.15;4.97;;;;;;;;;;5078032;28;20437;-79
2022/10/08 05:30:01;;;;;;;9.40;4.03;;;;;;;;;;5076777;28;20422;-79
2022/10/08 05:32:27;;;;;;;8.75;4.20;;;;;;;;;;5079777;28;20433;-78
2022/10/08 05:34:54;;;;;;;10.57;4.70;;;;;;;;;;5079499;28;20825;-78
2022/10/08 05:37:20;;;;;;;9.18;4.13;;;;;;;;;;5078599;28;20921;-78
2022/10/08 05:39:47;;;;;;;10.20;3.85;;;;;;;;;;5080331;28;20415;-77
2022/10/08 05:42:13;;;;;;;9.20;4.15;;;;;;;;;;5078726;28;20421;-79
2022/10/08 05:44:41;;;;;;;8.60;4.00;;;;;;;;;;5079577;28;20408;-79
2022/10/08 05:47:11;;;;;;;7.47;4.05;;;;;;;;;;5080440;28;20431;-79
2022/10/08 05:49:37;;;;;;;11.47;4.43;;;;;;;;;;5080709;28;20917;-79
2022/10/08 05:52:03;;;;;;;12.45;4.78;;;;;;;;;;5080624;28;20446;-79
2022/10/08 05:54:30;;;;;;;6.68;4.28;;;;;;;;;;5082464;28;20407;-79
2022/10/08 05:56:56;;;;;;;10.55;4.72;;;;;;;;;;5080435;28;20448;-79
2022/10/08 05:59:23;;;;;;;9.38;4.30;;;;;;;;;;5080266;28;20422;-79
2022/10/08 06:01:51;;;;;;;13.98;4.47;;;;;;;;;;5082331;28;20426;-79
2022/10/08 06:04:19;;;;;;;12.70;4.57;;;;;;;;;;5077788;28;20431;-79
2022/10/08 06:06:45;;;;;;;9.43;4.47;;;;;;;;;;5079580;28;20795;-79
2022/10/08 06:09:13;;;;;;;9.00;4.60;;;;;;;;;;5080522;28;20427;-79
2022/10/08 06:11:39;;;;;;;10.23;5.10;;;;;;;;;;5082299;28;20423;-78
2022/10/08 06:14:06;;;;;;;11.10;4.60;;;;;;;;;;5080362;28;20431;-78
2022/10/08 06:16:33;;;;;;;11.88;4.40;;;;;;;;;;5081768;28;20411;-78
2022/10/08 06:19:00;;;;;;;10.65;5.50;;;;;;;;;;5079860;28;20438;-80
2022/10/08 06:21:29;;;;;;;12.23;5.40;;;;;;;;;;5081766;28;20423;-79
2022/10/08 06:23:56;;;;;;;10.77;5.05;;;;;;;;;;5084489;28;20491;-79
2022/10/08 06:26:25;;;;;;;11.70;5.10;;;;;;;;;;5085759;28;20426;-79
2022/10/08 06:28:51;;;;;;;12.90;5.90;;;;;;;;;;5092575;28;20966;-79
2022/10/08 06:31:20;;;;;;;12.02;5.30;;;;;;;;;;5084675;28;20427;-80
2022/10/08 06:33:47;;;;;;;10.48;5.60;;;;;;;;;;5070114;28;20426;-79
2022/10/08 06:36:15;;;;;;;13.73;5.20;;;;;;;;;;5088520;28;20420;-80
2022/10/08 06:38:42;;;;;;;10.10;5.55;;;;;;;;;;5086498;28;20431;-80
2022/10/08 06:41:09;;;;;;;11.57;6.03;;;;;;;;;;5083201;28;20444;-80
2022/10/08 06:43:37;;;;;;;11.88;6.30;;;;;;;;;;5086869;28;20427;-80
2022/10/08 06:46:04;;;;;;;11.85;6.10;;;;;;;;;;5086239;28;20417;-80
2022/10/08 06:48:30;;;;;;;16.25;6.03;;;;;;;;;;5089396;28;20433;-80
2022/10/08 06:50:59;;;;;;;11.23;5.80;;;;;;;;;;5087261;28;20430;-80
2022/10/08 06:53:27;;;;;;;12.10;6.70;;;;;;;;;;5089017;28;20437;-81
2022/10/08 06:55:58;;;;;;;11.98;6.80;;;;;;;;;;5087227;28;20429;-80
2022/10/08 06:58:25;;;;;;;14.18;6.65;;;;;;;;;;5084927;28;20432;-80
2022/10/08 07:01:00;;;;;;;12.63;6.88;;;;;;;;;;5088666;28;20422;-80
2022/10/08 07:03:26;;;;;;;11.20;7.00;;;;;;;;;;5088736;28;20419;-80
2022/10/08 07:05:53;;;;;;;12.82;7.75;;;;;;;;;;5091435;28;20428;-80
2022/10/08 07:08:20;;;;;;;16.27;7.32;;;;;;;;;;5086250;28;20481;-80
2022/10/08 07:10:48;;;;;;;12.68;7.10;;;;;;;;;;5089379;28;20485;-80
2022/10/08 07:13:16;;;;;;;14.20;7.22;;;;;;;;;;5087216;28;20795;-80
2022/10/08 07:15:44;;;;;;;15.17;7.37;;;;;;;;;;5077824;28;20428;-80
2022/10/08 07:18:11;;;;;;;16.77;7.80;;;;;;;;;;5085414;28;20421;-80
2022/10/08 07:20:43;;;;;;;12.55;7.38;;;;;;;;;;5089271;28;20475;-78
2022/10/08 07:23:09;;;;;;;20.55;7.90;;;;;;;;;;5088391;28;20415;-80
2022/10/08 07:25:35;;;;;;;12.00;7.05;;;;;;;;;;5089652;28;20407;-80
2022/10/08 07:28:02;;;;;;;17.55;6.47;;;;;;;;;;5089764;28;20418;-80
2022/10/08 07:30:31;;;;;;;12.20;7.10;;;;;;;;;;5089260;28;20412;-80
2022/10/08 07:32:59;;;;;;;15.98;7.40;;;;;;;;;;5092417;28;20411;-80
2022/10/08 07:35:26;;;;;;;14.00;7.35;;;;;;;;;;5089406;28;20412;-80
2022/10/08 07:37:52;;;;;;;11.38;6.93;;;;;;;;;;5086280;28;20424;-78
2022/10/08 07:40:19;;;;;;;12.63;7.23;;;;;;;;;;5087621;28;20419;-78
2022/10/08 07:42:45;;;;;;;13.15;7.00;;;;;;;;;;5087092;28;20402;-79
2022/10/08 07:45:12;;;;;;;18.00;8.40;;;;;;;;;;5069134;28;20406;-79
2022/10/08 07:47:40;;;;;;;15.77;6.55;;;;;;;;;;5084107;28;20442;-79
2022/10/08 07:50:07;;;;;;;15.07;6.90;;;;;;;;;;5084580;28;20945;-79
2022/10/08 07:52:33;;;;;;;17.10;6.50;;;;;;;;;;5086646;28;20480;-79
2022/10/08 07:55:00;;;;;;;14.23;6.00;;;;;;;;;;5068115;28;20415;-79
2022/10/08 07:57:27;;;;;;;12.95;5.88;;;;;;;;;;5082241;28;20932;-79
2022/10/08 07:59:53;;;;;;;13.38;5.78;;;;;;;;;;5086325;28;20427;-79
2022/10/08 08:02:20;;;;;;;11.43;5.82;;;;;;;;;;5083302;28;20415;-79
2022/10/08 08:04:48;;;;;;;17.15;6.00;;;;;;;;;;5084527;28;20411;-79
2022/10/08 08:07:15;;;;;;;10.40;5.22;;;;;;;;;;5090769;28;20437;-79
2022/10/08 08:09:43;;;;;;;15.30;5.55;;;;;;;;;;5082599;28;20416;-79
2022/10/08 08:12:09;;;;;;;9.57;5.30;;;;;;;;;;5087288;28;20410;-79
2022/10/08 08:14:35;;;;;;;12.45;4.75;;;;;;;;;;5083293;28;20410;-79
2022/10/08 08:17:02;;;;;;;9.45;5.25;;;;;;;;;;5088336;28;20500;-79
2022/10/08 08:19:29;;;;;;;11.05;5.20;;;;;;;;;;5088226;28;20838;-78
2022/10/08 08:21:56;;;;;;;10.07;4.80;;;;;;;;;;5090696;28;20435;-79
2022/10/08 08:24:23;;;;;;;10.75;4.80;;;;;;;;;;5088529;28;20433;-78
2022/10/08 08:26:50;;;;;;;9.82;4.97;;;;;;;;;;5086252;28;20430;-79
2022/10/08 08:29:18;;;;;;;12.60;4.50;;;;;;;;;;5090832;28;21180;-81
2022/10/08 08:31:45;;;;;;;11.00;4.70;;;;;;;;;;5086258;28;20432;-80
2022/10/08 08:34:13;;;;;;;12.10;5.00;;;;;;;;;;5086654;28;20411;-79
2022/10/08 08:36:41;;;;;;;9.38;3.90;;;;;;;;;;5085024;28;20448;-79
2022/10/08 08:39:10;;;;;;;9.43;4.22;;;;;;;;;;5080285;28;20482;-79
2022/10/08 08:41:50;;;;;;;9.18;4.10;;;;;;;;;;5081604;28;20435;-77
2022/10/08 08:44:21;;;;;;;11.98;3.70;;;;;;;;;;5081551;28;20442;-78
2022/10/08 08:46:50;;;;;;;10.40;3.80;;;;;;;;;;5083822;28;20449;-78
2022/10/08 08:49:20;;;;;;;10.25;4.13;;;;;;;;;;5063674;28;20431;-78
2022/10/08 08:51:46;;;;;;;12.33;3.50;;;;;;;;;;5077857;28;20924;-78
2022/10/08 08:54:14;;;;;;;12.43;3.30;;;;;;;;;;5081747;28;20437;-78
2022/10/08 08:56:40;;;;;;;11.05;3.80;;;;;;;;;;5080482;28;20410;-78
2022/10/08 08:59:12;;;;;;;13.50;3.20;;;;;;;;;;5081502;28;20425;-78
2022/10/08 09:01:42;;;;;;;11.70;3.00;;;;;;;;;;5081282;28;20431;-77
2022/10/08 09:04:11;;;;;;;15.27;3.10;;;;;;;;;;5082205;28;20494;-78
2022/10/08 09:06:38;;;;;;;10.57;2.85;;;;;;;;;;5080323;28;20433;-78
2022/10/08 09:09:12;;;;;;;8.20;2.45;;;;;;;;;;5082599;28;20433;-78
2022/10/08 09:11:41;;;;;;;10.07;2.30;;;;;;;;;;5093212;28;20434;-77
2022/10/08 09:14:17;;;;;;;8.25;2.50;;;;;;;;;;5079328;28;20426;-78
2022/10/08 09:16:43;;;;;;;8.50;2.83;;;;;;;;;;5077481;28;20435;-79
2022/10/08 09:19:10;;;;;;;11.38;2.90;;;;;;;;;;5080647;28;20427;-78
2022/10/08 09:21:36;;;;;;;6.43;2.30;;;;;;;;;;5083042;28;20783;-78
2022/10/08 09:24:02;;;;;;;7.10;2.33;;;;;;;;;;5063733;28;20417;-78
2022/10/08 09:26:30;;;;;;;12.07;2.42;;;;;;;;;;5059860;28;20427;-78
2022/10/08 09:28:58;;;;;;;8.60;2.00;;;;;;;;;;5061870;28;20915;-78
2022/10/08 09:31:26;;;;;;;9.32;1.92;;;;;;;;;;5081030;28;20429;-78
2022/10/08 09:33:53;;;;;;;5.50;1.70;;;;;;;;;;5079786;28;20432;-78
2022/10/08 09:36:28;;;;;;;4.85;1.80;;;;;;;;;;5077689;28;21478;-78
2022/10/08 09:38:57;;;;;;;7.13;1.83;;;;;;;;;;5063260;28;20409;-78
2022/10/08 09:41:27;;;;;;;7.80;1.95;;;;;;;;;;5079886;27;20422;-78
2022/10/08 09:44:05;;;;;;;6.95;2.00;;;;;;;;;;5081197;28;20443;-78
2022/10/08 09:46:33;;;;;;;9.60;2.20;;;;;;;;;;5082533;28;20434;-78
2022/10/08 09:49:19;;;;;;;7.95;2.83;;;;;;;;;;5083036;28;20966;-78
2022/10/08 09:51:45;;;;;;;5.88;2.10;;;;;;;;;;5078175;28;20773;-78
2022/10/08 09:54:13;;;;;;;9.57;2.20;;;;;;;;;;5081321;28;20429;-78
2022/10/08 09:56:39;;;;;;;9.00;2.50;;;;;;;;;;5079958;28;20459;-78
2022/10/08 09:59:17;;;;;;;10.55;2.83;;;;;;;;;;5083497;28;20417;-78
2022/10/08 10:01:45;;;;;;;7.65;2.15;;;;;;;;;;5080543;28;20429;-78
2022/10/08 10:04:17;;;;;;;8.27;2.27;;;;;;;;;;5083366;28;20513;-78
2022/10/08 10:06:45;;;;;;;5.80;2.03;;;;;;;;;;5078762;28;20434;-78
2022/10/08 10:09:22;;;;;;;7.13;2.00;;;;;;;;;;5079636;28;20947;-80
2022/10/08 10:11:52;;;;;;;5.85;2.10;;;;;;;;;;5082643;28;20435;-78
2022/10/08 10:14:21;;;;;;;6.60;1.80;;;;;;;;;;5083088;28;20430;-79
2022/10/08 10:16:50;;;;;;;5.60;2.22;;;;;;;;;;5081578;28;20429;-79
2022/10/08 10:19:18;;;;;;;7.93;2.15;;;;;;;;;;5079951;28;20427;-79
2022/10/08 10:21:49;;;;;;;8.45;2.10;;;;;;;;;;5080277;28;20951;-79
2022/10/08 10:24:37;;;;;;;7.30;2.03;;;;;;;;;;5079052;28;20917;-79
2022/10/08 10:27:07;;;;;;;3.60;1.80;;;;;;;;;;5075859;28;20426;-79
2022/10/08 10:29:40;;;;;;;6.18;2.20;;;;;;;;;;5081863;28;20471;-79
2022/10/08 10:32:11;;;;;;;4.63;1.70;;;;;;;;;;5079129;28;20425;-78
2022/10/08 10:34:39;;;;;;;3.78;1.75;;;;;;;;;;5079617;28;20412;-80
2022/10/08 10:37:08;;;;;;;6.53;2.33;;;;;;;;;;5082801;28;20945;-78
2022/10/08 10:39:39;;;;;;;6.57;2.33;;;;;;;;;;5082599;28;20411;-78
2022/10/08 10:42:09;;;;;;;5.57;1.75;;;;;;;;;;5082804;28;20520;-78
2022/10/08 10:44:47;;;;;;;6.72;1.85;;;;;;;;;;5080303;28;20414;-80
2022/10/08 10:47:14;;;;;;;5.90;1.90;;;;;;;;;;5079704;28;20444;-79
2022/10/08 10:49:41;;;;;;;5.13;2.13;;;;;;;;;;5076422;28;21073;-79
2022/10/08 10:52:19;;;;;;;5.53;1.90;;;;;;;;;;5082218;28;20441;-80
2022/10/08 10:54:53;;;;;;;4.75;1.45;;;;;;;;;;5079075;28;20431;-79
2022/10/08 10:57:25;;;;;;;3.60;1.30;;;;;;;;;;5079719;28;20430;-78
2022/10/08 10:59:57;;;;;;;6.32;1.58;;;;;;;;;;5079652;28;20405;-78
2022/10/08 11:02:26;;;;;;;4.78;1.50;;;;;;;;;;5082525;28;20448;-77
2022/10/08 11:04:57;;;;;;;5.93;1.20;;;;;;;;;;5085830;28;20908;-77
2022/10/08 11:07:32;;;;;;;5.00;1.52;;;;;;;;;;5078943;28;20431;-80
2022/10/08 11:10:03;;;;;;;5.68;1.30;;;;;;;;;;5080907;28;20814;-78
2022/10/08 11:12:33;;;;;;;5.55;1.50;;;;;;;;;;5081773;28;20411;-77
2022/10/08 11:15:08;;;;;;;5.30;1.60;;;;;;;;;;5085037;28;20419;-77
2022/10/08 11:17:45;;;;;;;5.97;1.80;;;;;;;;;;5084204;28;20425;-77
2022/10/08 11:20:36;;;;;;;4.68;1.67;;;;;;;;;;5079589;28;20429;-77
2022/10/08 11:23:07;;;;;;;6.15;1.60;;;;;;;;;;5078577;28;20497;-79
2022/10/08 11:25:36;;;;;;;4.80;1.80;;;;;;;;;;5078659;28;20522;-78
2022/10/08 11:28:07;;;;;;;4.27;1.30;;;;;;;;;;5076329;28;20436;-80
2022/10/08 11:30:41;;;;;;;6.40;1.80;;;;;;;;;;5081231;28;20829;-79
2022/10/08 11:33:11;;;;;;;8.13;1.80;;;;;;;;;;5077566;28;20426;-78
2022/10/08 11:35:41;;;;;;;7.40;1.88;;;;;;;;;;5079939;28;20419;-79
2022/10/08 11:38:10;;;;;;;6.70;1.80;;;;;;;;;;5081283;28;21203;-80
2022/10/08 11:40:39;;;;;;;3.60;1.70;;;;;;;;;;5084826;28;20425;-77
2022/10/08 11:43:07;;;;;;;5.80;2.10;;;;;;;;;;5084020;28;20412;-79
2022/10/08 11:45:36;;;;;;;7.30;2.03;;;;;;;;;;5077785;28;20425;-78
2022/10/08 11:48:17;;;;;;;5.80;1.80;;;;;;;;;;5080013;28;20437;-77
2022/10/08 11:50:43;;;;;;;5.18;1.50;;;;;;;;;;5078874;28;20426;-77
2022/10/08 11:53:16;;;;;;;8.88;1.98;;;;;;;;;;5081935;28;20422;-79
2022/10/08 11:55:49;;;;;;;7.45;1.83;;;;;;;;;;5081904;28;20424;-77
2022/10/08 11:58:20;;;;;;;5.10;1.50;;;;;;;;;;5082251;28;20431;-77
2022/10/08 12:00:49;;;;;;;4.75;1.30;;;;;;;;;;5079628;28;20434;-76
2022/10/08 12:03:28;;;;;;;7.63;1.70;;;;;;;;;;5083526;28;20426;-77
2022/10/08 12:05:57;;;;;;;7.13;1.65;;;;;;;;;;5081065;28;20450;-76
2022/10/08 12:08:42;;;;;;;6.33;1.73;;;;;;;;;;5084957;28;20433;-77
2022/10/08 12:11:27;;;;;;;6.28;1.50;;;;;;;;;;5083098;28;20509;-77
2022/10/08 12:14:08;;;;;;;3.72;1.15;;;;;;;;;;5087347;28;20421;-77
2022/10/08 12:16:49;;;;;;;7.82;1.85;;;;;;;;;;5082448;28;20424;-78
2022/10/08 12:19:31;;;;;;;8.65;2.30;;;;;;;;;;5084122;28;20415;-79
2022/10/08 12:21:59;;;;;;;6.80;2.33;;;;;;;;;;5089477;28;20407;-78
2022/10/08 12:24:42;;;;;;;14.10;3.63;;;;;;;;;;5083977;28;20735;-78
2022/10/08 12:27:21;;;;;;;4.13;1.80;;;;;;;;;;5083240;28;20439;-78
2022/10/08 12:29:56;;;;;;;5.90;2.10;;;;;;;;;;5086831;28;20408;-79
2022/10/08 12:32:23;;;;;;;7.75;2.38;;;;;;;;;;5086943;28;20450;-77
2022/10/08 12:34:49;;;;;;;4.05;1.33;;;;;;;;;;5084793;28;20431;-78
2022/10/08 12:37:27;;;;;;;5.07;1.88;;;;;;;;;;5085728;28;20423;-80
2022/10/08 12:39:55;;;;;;;5.55;1.40;;;;;;;;;;5086311;27;20477;-79
2022/10/08 12:42:22;;;;;;;5.88;1.83;;;;;;;;;;5084647;28;20908;-79
2022/10/08 12:44:56;;;;;;;7.25;1.85;;;;;;;;;;5081856;28;20423;-77
2022/10/08 12:47:27;;;;;;;4.95;1.60;;;;;;;;;;5083899;28;20421;-79
2022/10/08 12:49:58;;;;;;;7.13;2.45;;;;;;;;;;5083565;28;20453;-78
2022/10/08 12:52:26;;;;;;;10.15;2.17;;;;;;;;;;5087407;28;20429;-77
2022/10/08 12:54:54;;;;;;;6.00;2.30;;;;;;;;;;5082988;28;20420;-80
2022/10/08 12:57:22;;;;;;;6.13;2.33;;;;;;;;;;5083336;28;20414;-80
2022/10/08 12:59:49;;;;;;;6.88;2.30;;;;;;;;;;5087565;28;20419;-80
2022/10/08 13:02:25;;;;;;;6.88;2.10;;;;;;;;;;5087872;28;20510;-80
2022/10/08 13:04:52;;;;;;;6.80;1.23;;;;;;;;;;5084974;28;20413;-81
2022/10/08 13:07:18;;;;;;;3.85;1.30;;;;;;;;;;5091045;28;20757;-79
2022/10/08 13:09:46;;;;;;;4.40;1.70;;;;;;;;;;5088924;28;20408;-79
2022/10/08 13:12:12;;;;;;;4.03;1.65;;;;;;;;;;5089420;28;20426;-79
2022/10/08 13:14:39;;;;;;;10.95;2.58;;;;;;;;;;5086443;28;20414;-79
2022/10/08 13:17:06;;;;;;;5.65;1.40;;;;;;;;;;5091146;28;20413;-79
2022/10/08 13:19:34;;;;;;;8.82;1.40;;;;;;;;;;5086386;28;20441;-79
2022/10/08 13:22:00;;;;;;;5.10;1.50;;;;;;;;;;5089642;28;20424;-79
2022/10/08 13:24:38;;;;;;;5.18;1.48;;;;;;;;;;5091316;28;20403;-79
2022/10/08 13:27:06;;;;;;;6.53;1.52;;;;;;;;;;5085055;28;20919;-80
2022/10/08 13:29:34;;;;;;;5.95;1.88;;;;;;;;;;5089154;28;20940;-80
2022/10/08 13:32:02;;;;;;;6.18;2.08;;;;;;;;;;5087478;28;20826;-80
2022/10/08 13:34:29;;;;;;;6.97;2.05;;;;;;;;;;5082869;28;20398;-82
2022/10/08 13:36:57;;;;;;;7.97;2.20;;;;;;;;;;5084942;28;20909;-78
2022/10/08 13:39:25;;;;;;;10.48;2.13;;;;;;;;;;5090164;27;20424;-79
2022/10/08 13:41:54;;;;;;;8.75;1.60;;;;;;;;;;5090249;28;20421;-81
2022/10/08 13:44:22;;;;;;;10.95;2.25;;;;;;;;;;5082980;28;20437;-79
2022/10/08 13:46:49;;;;;;;8.18;2.30;;;;;;;;;;5083866;28;20792;-80
2022/10/08 13:49:19;;;;;;;8.60;2.28;;;;;;;;;;5082907;28;20519;-80
2022/10/08 13:51:46;;;;;;;6.30;2.53;;;;;;;;;;5081506;28;21116;-80
2022/10/08 13:54:13;;;;;;;5.55;1.75;;;;;;;;;;5081696;28;20431;-79
2022/10/08 13:56:39;;;;;;;10.20;2.08;;;;;;;;;;5085076;28;20438;-80
2022/10/08 13:59:07;;;;;;;5.60;1.90;;;;;;;;;;5082791;28;20435;-80
2022/10/08 14:01:35;;;;;;;5.95;1.75;;;;;;;;;;5086825;28;20426;-81
2022/10/08 14:04:01;;;;;;;5.97;1.60;;;;;;;;;;5084549;28;20459;-79
2022/10/08 14:06:27;;;;;;;10.95;2.50;;;;;;;;;;5082077;28;20419;-80
2022/10/08 14:08:54;;;;;;;9.10;2.10;;;;;;;;;;5083465;28;20430;-79
2022/10/08 14:11:20;;;;;;;9.85;2.70;;;;;;;;;;5079717;28;20411;-80
2022/10/08 14:13:47;;;;;;;6.73;2.07;;;;;;;;;;5080653;28;20423;-79
2022/10/08 14:16:13;;;;;;;10.13;1.83;;;;;;;;;;5079618;28;20431;-79
2022/10/08 14:18:41;;;;;;;7.00;2.08;;;;;;;;;;5079838;28;20452;-79
2022/10/08 14:21:07;;;;;;;6.68;2.03;;;;;;;;;;5077820;28;20435;-79
2022/10/08 14:23:34;;;;;;;7.30;2.30;;;;;;;;;;5081016;28;20422;-80
2022/10/08 14:26:00;;;;;;;8.57;2.50;;;;;;;;;;5077365;28;20431;-80
2022/10/08 14:28:26;;;;;;;8.25;2.20;;;;;;;;;;5080735;28;20443;-79
2022/10/08 14:30:53;;;;;;;4.97;1.65;;;;;;;;;;5079664;28;20807;-80
2022/10/08 14:33:19;;;;;;;12.20;2.40;;;;;;;;;;5082283;28;20927;-79
2022/10/08 14:35:49;;;;;;;9.13;2.38;;;;;;;;;;5081497;28;20493;-77
2022/10/08 14:38:16;;;;;;;11.00;2.10;;;;;;;;;;5080234;28;20490;-80
2022/10/08 14:40:42;;;;;;;10.00;2.22;;;;;;;;;;5080714;28;20422;-80
2022/10/08 14:43:08;;;;;;;7.05;2.05;;;;;;;;;;5079799;28;20432;-79
2022/10/08 14:45:35;;;;;;;7.38;1.98;;;;;;;;;;5078785;28;20431;-79